createdAt,value
2019-02-09T00:02:24.040Z,0.76
2019-02-09T00:04:54.978Z,0.71
2019-02-09T00:07:27.759Z,0.68
2019-02-09T00:09:58.401Z,0.67
2019-02-09T00:12:29.829Z,0.73
2019-02-09T00:15:01.058Z,0.75
2019-02-09T00:17:32.358Z,0.79
2019-02-09T00:20:02.990Z,0.82
2019-02-09T00:22:33.720Z,0.83
2019-02-09T00:25:04.719Z,0.79
2019-02-09T00:27:35.439Z,0.78
2019-02-09T00:30:08.875Z,0.74
2019-02-09T00:32:39.819Z,0.75
2019-02-09T00:35:11.749Z,0.74
2019-02-09T00:37:42.519Z,0.70
2019-02-09T00:40:13.639Z,0.73
2019-02-09T00:42:44.220Z,0.73
2019-02-09T00:45:16.920Z,0.82
2019-02-09T00:47:47.999Z,0.79
2019-02-09T00:50:19.682Z,0.77
2019-02-09T00:52:50.419Z,0.72
2019-02-09T00:55:22.130Z,0.72
2019-02-09T00:57:52.780Z,0.72
2019-02-09T01:00:25.035Z,0.78
2019-02-09T01:02:55.800Z,1.16
2019-02-09T01:05:31.500Z,1.29
2019-02-09T01:08:02.238Z,1.44
2019-02-09T01:10:33.590Z,1.56
2019-02-09T01:13:04.825Z,1.50
2019-02-09T01:15:36.290Z,1.51
2019-02-09T01:18:07.625Z,1.48
2019-02-09T01:20:38.599Z,1.45
2019-02-09T01:23:10.099Z,1.53
2019-02-09T01:25:41.200Z,1.59
2019-02-09T01:28:12.014Z,1.67
2019-02-09T01:30:42.770Z,1.60
2019-02-09T01:33:13.545Z,1.71
2019-02-09T01:35:44.380Z,1.79
2019-02-09T01:38:15.079Z,1.78
2019-02-09T01:40:45.771Z,1.88
2019-02-09T01:43:16.393Z,1.91
2019-02-09T01:45:47.032Z,1.97
2019-02-09T01:48:18.129Z,1.95
2019-02-09T01:50:49.605Z,2.13
2019-02-09T01:53:20.750Z,2.07
2019-02-09T01:55:51.690Z,2.09
2019-02-09T01:58:22.934Z,2.30
2019-02-09T02:00:53.742Z,2.17
2019-02-09T02:03:24.439Z,2.26
2019-02-09T02:05:55.280Z,2.31
2019-02-09T02:08:26.142Z,2.46
2019-02-09T02:10:56.975Z,2.58
2019-02-09T02:13:29.118Z,2.49
2019-02-09T02:15:59.830Z,2.56
2019-02-09T02:18:30.511Z,2.49
2019-02-09T02:21:01.359Z,2.66
2019-02-09T02:23:32.122Z,2.39
2019-02-09T02:26:02.950Z,2.37
2019-02-09T02:28:33.658Z,2.24
2019-02-09T02:31:04.438Z,2.20
2019-02-09T02:33:35.098Z,2.20
2019-02-09T02:36:06.219Z,2.11
2019-02-09T02:38:37.126Z,2.06
2019-02-09T02:41:07.839Z,1.98
2019-02-09T02:43:38.656Z,1.90
2019-02-09T02:46:10.934Z,1.80
2019-02-09T02:48:41.659Z,1.77
2019-02-09T02:51:12.479Z,1.83
2019-02-09T02:53:43.258Z,1.93
2019-02-09T02:56:14.080Z,1.93
2019-02-09T02:58:44.760Z,1.94
2019-02-09T03:01:15.579Z,1.88
2019-02-09T03:03:46.343Z,1.81
2019-02-09T03:06:16.987Z,1.69
2019-02-09T03:08:47.610Z,1.52
2019-02-09T03:11:18.478Z,1.35
2019-02-09T03:13:49.140Z,1.24
2019-02-09T03:16:19.911Z,1.18
2019-02-09T03:18:50.996Z,1.16
2019-02-09T03:21:21.791Z,1.26
2019-02-09T03:23:52.540Z,1.27
2019-02-09T03:26:23.239Z,1.36
2019-02-09T03:28:53.960Z,1.39
2019-02-09T03:31:24.721Z,1.41
2019-02-09T03:33:55.418Z,1.43
2019-02-09T03:36:26.201Z,1.41
2019-02-09T03:38:56.899Z,1.37
2019-02-09T03:41:27.579Z,1.56
2019-02-09T03:43:58.399Z,1.51
2019-02-09T03:46:29.071Z,1.47
2019-02-09T03:48:59.740Z,1.43
2019-02-09T03:51:30.439Z,1.34
2019-02-09T03:54:01.550Z,1.36
2019-02-09T03:56:32.299Z,1.53
2019-02-09T03:59:03.171Z,1.76
2019-02-09T04:01:34.004Z,1.78
2019-02-09T04:04:04.973Z,1.95
2019-02-09T04:06:35.730Z,2.11
2019-02-09T04:09:09.615Z,2.15
2019-02-09T04:11:40.390Z,2.01
2019-02-09T04:14:11.151Z,1.85
2019-02-09T04:16:41.820Z,1.88
2019-02-09T04:19:12.682Z,2.09
2019-02-09T04:21:46.618Z,2.29
2019-02-09T04:24:17.476Z,2.23
2019-02-09T04:26:48.211Z,2.22
2019-02-09T04:29:18.859Z,2.21
2019-02-09T04:31:49.860Z,2.08
2019-02-09T04:34:20.393Z,1.88
2019-02-09T04:36:51.120Z,1.66
2019-02-09T04:39:21.988Z,1.42
2019-02-09T04:41:52.681Z,1.32
2019-02-09T04:44:23.460Z,1.24
2019-02-09T04:46:54.240Z,1.10
2019-02-09T04:49:25.072Z,1.15
2019-02-09T04:51:55.878Z,1.18
2019-02-09T04:54:26.700Z,1.15
2019-02-09T04:56:57.580Z,1.24
2019-02-09T04:59:28.239Z,1.14
2019-02-09T05:01:59.459Z,1.00
2019-02-09T05:04:30.281Z,1.10
2019-02-09T05:07:01.401Z,1.19
2019-02-09T05:09:32.240Z,1.24
2019-02-09T05:12:02.920Z,1.34
2019-02-09T05:14:33.735Z,1.27
2019-02-09T05:17:04.490Z,1.19
2019-02-09T05:19:35.239Z,1.09
2019-02-09T05:22:06.101Z,1.12
2019-02-09T05:24:36.906Z,1.23
2019-02-09T05:27:07.877Z,1.22
2019-02-09T05:29:38.601Z,1.25
2019-02-09T05:32:09.379Z,1.27
2019-02-09T05:34:40.091Z,1.45
2019-02-09T05:37:10.839Z,1.45
2019-02-09T05:39:41.599Z,1.39
2019-02-09T05:42:12.444Z,1.32
2019-02-09T05:44:43.190Z,1.39
2019-02-09T05:47:13.839Z,1.39
2019-02-09T05:49:44.678Z,1.48
2019-02-09T05:52:15.497Z,1.42
2019-02-09T05:54:46.300Z,1.44
2019-02-09T05:57:17.022Z,1.58
2019-02-09T05:59:47.755Z,1.67
2019-02-09T06:02:18.679Z,1.58
2019-02-09T06:04:49.361Z,1.64
2019-02-09T06:07:20.116Z,1.69
2019-02-09T06:09:50.755Z,1.76
2019-02-09T06:12:21.436Z,1.85
2019-02-09T06:14:52.921Z,1.77
2019-02-09T06:17:23.676Z,1.75
2019-02-09T06:19:54.375Z,1.61
2019-02-09T06:22:25.099Z,1.60
2019-02-09T06:24:55.839Z,1.54
2019-02-09T06:27:26.603Z,1.51
2019-02-09T06:29:57.435Z,1.49
2019-02-09T06:32:27.975Z,1.61
2019-02-09T06:34:59.098Z,1.83
2019-02-09T06:37:29.759Z,2.05
2019-02-09T06:40:00.383Z,1.99
2019-02-09T06:42:31.095Z,2.04
2019-02-09T06:45:01.892Z,2.03
2019-02-09T06:47:32.504Z,2.16
2019-02-09T06:50:02.935Z,2.20
2019-02-09T06:52:33.838Z,2.28
2019-02-09T06:55:05.365Z,2.24
2019-02-09T06:57:37.636Z,2.35
2019-02-09T07:00:13.042Z,2.45
2019-02-09T07:02:43.528Z,2.44
2019-02-09T07:05:17.934Z,2.73
2019-02-09T07:07:48.918Z,2.82
2019-02-09T07:10:22.689Z,2.95
2019-02-09T07:12:53.319Z,2.93
2019-02-09T07:15:27.389Z,3.13
2019-02-09T07:17:58.263Z,3.24
2019-02-09T07:20:28.891Z,3.54
2019-02-09T07:22:59.942Z,3.87
2019-02-09T07:25:30.499Z,4.11
2019-02-09T07:28:12.163Z,4.29
2019-02-09T07:30:43.209Z,4.26
2019-02-09T07:33:14.040Z,4.62
2019-02-09T07:35:44.710Z,4.62
2019-02-09T07:38:15.452Z,4.52
2019-02-09T07:40:46.071Z,4.46
2019-02-09T07:43:16.979Z,4.56
2019-02-09T07:45:47.559Z,4.56
2019-02-09T07:48:18.136Z,4.63
2019-02-09T07:50:48.743Z,4.54
2019-02-09T07:53:19.320Z,4.55
2019-02-09T07:55:50.472Z,4.49
2019-02-09T07:58:20.994Z,4.48
2019-02-09T08:00:51.581Z,4.52
2019-02-09T08:03:22.242Z,4.66
2019-02-09T08:05:52.735Z,4.83
2019-02-09T08:08:23.410Z,5.06
2019-02-09T08:10:54.031Z,5.03
2019-02-09T08:13:24.684Z,4.84
2019-02-09T08:15:55.345Z,4.80
2019-02-09T08:18:26.060Z,4.82
2019-02-09T08:20:56.688Z,4.76
2019-02-09T08:23:27.264Z,4.84
2019-02-09T08:25:57.831Z,4.82
2019-02-09T08:28:28.374Z,4.74
2019-02-09T08:30:58.919Z,4.73
2019-02-09T08:33:29.709Z,4.77
2019-02-09T08:36:00.480Z,4.75
2019-02-09T08:38:31.139Z,4.82
2019-02-09T08:41:01.619Z,4.78
2019-02-09T08:43:32.248Z,4.82
2019-02-09T08:46:02.926Z,4.82
2019-02-09T08:48:33.426Z,4.86
2019-02-09T08:51:09.405Z,4.77
2019-02-09T08:53:40.013Z,4.79
2019-02-09T08:56:10.720Z,4.93
2019-02-09T08:58:41.455Z,5.03
2019-02-09T09:01:12.065Z,4.94
2019-02-09T09:03:42.809Z,5.11
2019-02-09T09:06:13.362Z,5.13
2019-02-09T09:08:43.953Z,5.16
2019-02-09T09:11:14.661Z,5.24
2019-02-09T09:13:45.201Z,5.19
2019-02-09T09:16:15.980Z,5.07
2019-02-09T09:18:46.650Z,5.15
2019-02-09T09:21:17.227Z,5.09
2019-02-09T09:23:48.018Z,5.04
2019-02-09T09:26:19.003Z,5.01
2019-02-09T09:28:49.753Z,4.86
2019-02-09T09:31:20.340Z,4.88
2019-02-09T09:33:59.049Z,5.09
2019-02-09T09:36:30.157Z,5.14
2019-02-09T09:39:00.781Z,5.27
2019-02-09T09:41:31.365Z,5.30
2019-02-09T09:44:17.609Z,5.62
2019-02-09T09:46:48.470Z,5.86
2019-02-09T09:49:19.110Z,5.94
2019-02-09T09:51:49.907Z,6.10
2019-02-09T09:54:20.770Z,5.96
2019-02-09T09:56:51.379Z,6.15
2019-02-09T09:59:22.291Z,6.33
2019-02-09T10:01:52.881Z,6.44
2019-02-09T10:04:23.588Z,6.55
2019-02-09T10:06:54.162Z,6.40
2019-02-09T10:09:24.864Z,6.51
2019-02-09T10:12:01.504Z,6.53
2019-02-09T10:14:32.281Z,6.46
2019-02-09T10:17:02.864Z,6.71
2019-02-09T10:19:33.504Z,6.45
2019-02-09T10:22:04.095Z,6.36
2019-02-09T10:24:34.679Z,6.24
2019-02-09T10:27:05.169Z,6.26
2019-02-09T10:29:35.675Z,6.27
2019-02-09T10:32:09.225Z,6.30
2019-02-09T10:34:39.800Z,6.25
2019-02-09T10:37:10.314Z,6.24
2019-02-09T10:39:40.901Z,6.22
2019-02-09T10:42:11.436Z,6.25
2019-02-09T10:44:42.000Z,6.20
2019-02-09T10:47:12.733Z,6.17
2019-02-09T10:49:46.774Z,6.12
2019-02-09T10:52:19.123Z,6.04
2019-02-09T10:54:49.859Z,6.05
2019-02-09T10:57:20.379Z,6.20
2019-02-09T10:59:58.081Z,6.41
2019-02-09T11:02:28.571Z,6.48
2019-02-09T11:04:59.154Z,6.60
2019-02-09T11:07:29.774Z,6.61
2019-02-09T11:10:02.219Z,6.63
2019-02-09T11:12:32.744Z,6.63
2019-02-09T11:15:03.309Z,6.73
2019-02-09T11:17:33.953Z,7.17
2019-02-09T11:20:05.303Z,7.00
2019-02-09T11:22:36.009Z,6.79
2019-02-09T11:25:08.639Z,6.74
2019-02-09T11:27:41.353Z,7.49
2019-02-09T11:30:19.892Z,9.29
2019-02-09T11:32:50.995Z,9.96
2019-02-09T11:35:22.199Z,10.41
2019-02-09T11:38:01.175Z,10.73
2019-02-09T11:40:32.015Z,10.91
2019-02-09T11:43:04.127Z,10.19
2019-02-09T11:45:35.703Z,9.15
2019-02-09T11:48:07.134Z,8.51
2019-02-09T11:50:37.744Z,9.58
2019-02-09T11:53:08.571Z,9.89
2019-02-09T11:55:39.172Z,10.49
2019-02-09T11:58:09.936Z,11.09
2019-02-09T12:00:45.611Z,11.35
2019-02-09T12:03:16.506Z,11.92
2019-02-09T12:05:47.454Z,11.92
2019-02-09T12:08:18.296Z,11.52
2019-02-09T12:10:48.969Z,11.28
2019-02-09T12:13:19.641Z,11.20
2019-02-09T12:15:52.262Z,11.20
2019-02-09T12:18:23.360Z,11.29
2019-02-09T12:20:53.898Z,11.37
2019-02-09T12:23:24.490Z,11.27
2019-02-09T12:26:05.727Z,11.40
2019-02-09T12:28:36.348Z,10.92
2019-02-09T12:31:07.028Z,10.59
2019-02-09T12:33:37.677Z,10.14
2019-02-09T12:36:09.066Z,10.27
2019-02-09T12:38:39.804Z,9.83
2019-02-09T12:41:10.599Z,9.44
2019-02-09T12:43:42.452Z,9.46
2019-02-09T12:46:13.119Z,9.70
2019-02-09T12:48:43.820Z,9.44
2019-02-09T12:51:14.419Z,9.43
2019-02-09T12:53:45.056Z,9.61
2019-02-09T12:56:15.660Z,9.03
2019-02-09T12:58:46.210Z,8.54
2019-02-09T13:01:16.977Z,8.30
2019-02-09T13:03:47.627Z,7.97
2019-02-09T13:06:18.412Z,8.02
2019-02-09T13:08:50.183Z,7.95
2019-02-09T13:11:20.772Z,7.98
2019-02-09T13:14:00.086Z,7.85
2019-02-09T13:16:30.727Z,7.76
2019-02-09T13:19:01.355Z,7.66
2019-02-09T13:21:31.970Z,7.63
2019-02-09T13:24:02.520Z,7.51
2019-02-09T13:26:33.107Z,7.41
2019-02-09T13:29:03.632Z,7.32
2019-02-09T13:31:34.280Z,7.33
2019-02-09T13:34:04.994Z,7.31
2019-02-09T13:36:35.605Z,7.33
2019-02-09T13:39:09.228Z,7.29
2019-02-09T13:41:39.885Z,7.33
2019-02-09T13:44:10.508Z,7.39
2019-02-09T13:46:41.177Z,7.27
2019-02-09T13:49:11.695Z,7.37
2019-02-09T13:51:47.801Z,7.36
2019-02-09T13:54:18.335Z,7.42
2019-02-09T13:56:48.864Z,7.36
2019-02-09T13:59:19.442Z,7.40
2019-02-09T14:01:50.420Z,7.40
2019-02-09T14:04:21.250Z,7.49
2019-02-09T14:06:51.891Z,7.50
2019-02-09T14:09:22.611Z,7.61
2019-02-09T14:11:53.544Z,7.69
2019-02-09T14:14:24.270Z,7.63
2019-02-09T14:16:54.960Z,7.68
2019-02-09T14:19:25.724Z,7.64
2019-02-09T14:22:04.396Z,7.82
2019-02-09T14:24:34.949Z,8.07
2019-02-09T14:27:05.591Z,8.12
2019-02-09T14:29:36.182Z,8.12
2019-02-09T14:32:07.343Z,8.08
2019-02-09T14:34:38.075Z,8.03
2019-02-09T14:37:08.624Z,7.92
2019-02-09T14:39:39.231Z,7.90
2019-02-09T14:42:09.825Z,7.90
2019-02-09T14:44:40.346Z,7.89
2019-02-09T14:47:11.000Z,7.79
2019-02-09T14:49:41.609Z,7.68
2019-02-09T14:52:12.247Z,7.64
2019-02-09T14:54:43.291Z,7.64
2019-02-09T14:57:13.849Z,7.57
2019-02-09T14:59:44.390Z,7.50
2019-02-09T15:02:15.021Z,7.48
2019-02-09T15:04:45.700Z,7.47
2019-02-09T15:07:16.390Z,7.43
2019-02-09T15:09:47.145Z,7.34
2019-02-09T15:12:17.673Z,7.26
2019-02-09T15:14:48.391Z,7.20
2019-02-09T15:17:18.900Z,7.04
2019-02-09T15:19:49.451Z,6.98
2019-02-09T15:22:20.130Z,6.90
2019-02-09T15:24:53.861Z,7.00
2019-02-09T15:27:25.558Z,6.86
2019-02-09T15:29:56.383Z,6.82
2019-02-09T15:32:26.959Z,6.75
2019-02-09T15:34:57.624Z,6.70
2019-02-09T15:37:28.220Z,6.64
2019-02-09T15:39:58.830Z,6.55
2019-02-09T15:42:29.522Z,6.53
2019-02-09T15:45:00.257Z,6.41
2019-02-09T15:47:31.016Z,6.40
2019-02-09T15:50:03.107Z,6.33
2019-02-09T15:52:33.851Z,6.34
2019-02-09T15:55:04.606Z,6.32
2019-02-09T15:57:35.242Z,6.22
2019-02-09T16:00:12.827Z,6.16
2019-02-09T16:02:44.776Z,6.19
2019-02-09T16:05:15.665Z,6.13
2019-02-09T16:07:46.230Z,6.18
2019-02-09T16:10:19.160Z,6.09
2019-02-09T16:12:51.108Z,6.02
2019-02-09T16:15:26.896Z,6.10
2019-02-09T16:17:59.415Z,6.16
2019-02-09T16:20:30.546Z,6.10
2019-02-09T16:23:01.179Z,6.07
2019-02-09T16:25:32.991Z,6.08
2019-02-09T16:28:05.724Z,6.16
2019-02-09T16:30:36.471Z,6.12
2019-02-09T16:33:07.350Z,6.07
2019-02-09T16:35:39.275Z,6.02
2019-02-09T16:38:09.999Z,6.05
2019-02-09T16:40:40.661Z,6.04
2019-02-09T16:43:13.706Z,6.03
2019-02-09T16:45:44.766Z,5.98
2019-02-09T16:48:15.841Z,5.89
2019-02-09T16:50:49.405Z,5.86
2019-02-09T16:53:22.625Z,5.78
2019-02-09T16:55:56.817Z,5.71
2019-02-09T16:58:27.428Z,5.65
2019-02-09T17:01:05.283Z,5.61
2019-02-09T17:03:35.115Z,5.54
2019-02-09T17:06:06.106Z,5.46
2019-02-09T17:08:44.114Z,5.42
2019-02-09T17:11:14.737Z,5.41
2019-02-09T17:13:45.268Z,5.39
2019-02-09T17:16:16.247Z,5.35
2019-02-09T17:18:47.012Z,5.31
2019-02-09T17:21:17.804Z,5.25
2019-02-09T17:23:48.562Z,5.39
2019-02-09T17:26:19.293Z,5.49
2019-02-09T17:28:51.037Z,5.46
2019-02-09T17:31:21.693Z,5.41
2019-02-09T17:33:53.891Z,5.43
2019-02-09T17:36:25.662Z,5.41
2019-02-09T17:38:56.399Z,5.39
2019-02-09T17:41:27.128Z,5.35
2019-02-09T17:44:01.287Z,5.33
2019-02-09T17:46:35.142Z,5.28
2019-02-09T17:49:05.781Z,5.27
2019-02-09T17:51:36.566Z,5.19
2019-02-09T17:54:07.310Z,5.16
2019-02-09T17:56:39.999Z,5.12
2019-02-09T17:59:10.439Z,5.10
2019-02-09T18:01:41.158Z,4.96
2019-02-09T18:04:14.583Z,5.02
2019-02-09T18:06:46.210Z,5.00
2019-02-09T18:09:19.014Z,4.92
2019-02-09T18:11:49.510Z,4.89
2019-02-09T18:14:23.430Z,4.87
2019-02-09T18:16:54.018Z,4.84
2019-02-09T18:19:25.904Z,4.80
2019-02-09T18:21:57.648Z,4.72
2019-02-09T18:24:29.346Z,4.69
2019-02-09T18:27:03.834Z,4.66
2019-02-09T18:29:37.641Z,4.59
2019-02-09T18:32:17.087Z,4.77
2019-02-09T18:34:56.819Z,4.71
2019-02-09T18:37:32.562Z,4.63
2019-02-09T18:40:12.569Z,4.63
2019-02-09T18:42:43.157Z,4.69
2019-02-09T18:45:21.652Z,4.79
2019-02-09T18:47:52.328Z,4.67
2019-02-09T18:50:30.534Z,4.73
2019-02-09T18:53:03.747Z,4.71
2019-02-09T18:55:34.339Z,4.79
2019-02-09T18:58:06.275Z,4.79
2019-02-09T19:00:45.619Z,4.78
2019-02-09T19:03:19.129Z,4.80
2019-02-09T19:05:56.502Z,4.83
2019-02-09T19:08:28.363Z,4.86
2019-02-09T19:11:00.489Z,4.88
2019-02-09T19:13:38.326Z,4.83
2019-02-09T19:16:09.314Z,4.78
2019-02-09T19:18:40.021Z,4.67
2019-02-09T19:21:17.971Z,4.61
2019-02-09T19:23:48.815Z,4.63
2019-02-09T19:26:23.685Z,4.54
2019-02-09T19:28:58.984Z,4.61
2019-02-09T19:31:30.028Z,4.62
2019-02-09T19:34:04.738Z,4.62
2019-02-09T19:36:36.579Z,4.53
2019-02-09T19:39:14.257Z,4.44
2019-02-09T19:41:50.124Z,4.39
2019-02-09T19:44:22.029Z,4.40
2019-02-09T19:46:55.867Z,4.38
2019-02-09T19:49:30.984Z,4.33
2019-02-09T19:52:08.370Z,4.28
2019-02-09T19:54:36.472Z,4.34
2019-02-09T19:57:10.175Z,4.37
2019-02-09T19:59:42.594Z,4.38
2019-02-09T20:02:21.056Z,4.41
2019-02-09T20:04:57.108Z,4.39
2019-02-09T20:07:32.067Z,4.38
2019-02-09T20:10:03.546Z,4.42
2019-02-09T20:12:35.727Z,4.43
2019-02-09T20:15:10.179Z,4.42
2019-02-09T20:17:45.363Z,4.41
2019-02-09T20:20:23.160Z,4.41
2019-02-09T20:22:53.826Z,4.38
2019-02-09T20:25:29.290Z,4.33
2019-02-09T20:28:04.294Z,4.33
2019-02-09T20:30:38.931Z,4.37
2019-02-09T20:33:12.117Z,4.42
2019-02-09T20:35:49.925Z,4.54
2019-02-09T20:38:21.812Z,4.55
2019-02-09T20:40:59.281Z,4.63
2019-02-09T20:43:34.321Z,4.61
2019-02-09T20:46:05.304Z,4.59
2019-02-09T20:48:36.160Z,4.57
2019-02-09T20:51:07.052Z,4.55
2019-02-09T20:53:41.300Z,4.60
2019-02-09T20:56:12.491Z,4.64
2019-02-09T20:58:45.322Z,4.63
2019-02-09T21:01:17.099Z,4.58
2019-02-09T21:03:48.962Z,4.52
2019-02-09T21:06:20.148Z,4.45
2019-02-09T21:08:51.101Z,4.57
2019-02-09T21:11:26.342Z,4.50
2019-02-09T21:13:56.877Z,4.50
2019-02-09T21:16:27.486Z,4.45
2019-02-09T21:19:01.265Z,4.45
2019-02-09T21:21:37.845Z,4.36
2019-02-09T21:24:08.496Z,4.38
2019-02-09T21:26:43.417Z,4.30
2019-02-09T21:29:15.200Z,4.24
2019-02-09T21:31:50.039Z,4.21
2019-02-09T21:34:20.740Z,4.19
2019-02-09T21:36:52.512Z,4.12
2019-02-09T21:39:33.726Z,4.03
2019-02-09T21:42:06.113Z,4.11
2019-02-09T21:44:40.048Z,4.20
2019-02-09T21:47:18.903Z,4.11
2019-02-09T21:49:51.980Z,4.09
2019-02-09T21:52:26.905Z,4.09
2019-02-09T21:54:58.586Z,4.11
2019-02-09T21:57:31.995Z,4.16
2019-02-09T22:00:06.643Z,4.14
2019-02-09T22:02:42.683Z,4.15
2019-02-09T22:05:12.357Z,4.14
2019-02-09T22:07:43.172Z,4.16
2019-02-09T22:10:18.827Z,4.27
2019-02-09T22:12:50.826Z,4.18
2019-02-09T22:15:24.195Z,4.20
2019-02-09T22:17:54.916Z,4.23
2019-02-09T22:20:25.900Z,4.28
2019-02-09T22:22:56.985Z,4.34
2019-02-09T22:25:27.711Z,4.34
2019-02-09T22:27:58.725Z,4.22
2019-02-09T22:30:30.228Z,4.19
2019-02-09T22:33:00.969Z,4.18
2019-02-09T22:35:31.964Z,4.15
2019-02-09T22:38:02.732Z,4.11
2019-02-09T22:40:36.054Z,4.10
2019-02-09T22:43:07.567Z,4.12
2019-02-09T22:45:38.455Z,4.09
2019-02-09T22:48:10.638Z,4.05
2019-02-09T22:50:46.960Z,4.04
2019-02-09T22:53:17.696Z,3.93
2019-02-09T22:55:48.496Z,3.86
2019-02-09T22:58:19.796Z,3.80
2019-02-09T23:01:16.142Z,3.72
2019-02-09T23:04:17.466Z,3.72
2019-02-09T23:07:03.552Z,3.69
2019-02-09T23:09:34.969Z,3.67
2019-02-09T23:12:05.621Z,3.55
2019-02-09T23:14:36.346Z,3.55
2019-02-09T23:17:07.039Z,3.58
2019-02-09T23:19:38.202Z,3.54
2019-02-09T23:22:11.688Z,3.48
2019-02-09T23:24:42.518Z,3.52
2019-02-09T23:27:13.567Z,3.58
2019-02-09T23:29:44.519Z,3.60
2019-02-09T23:32:15.723Z,3.55
2019-02-09T23:34:46.968Z,3.48
2019-02-09T23:37:17.523Z,3.35
2019-02-09T23:39:48.675Z,3.31
2019-02-09T23:42:19.320Z,3.27
2019-02-09T23:44:49.773Z,3.19
2019-02-09T23:47:20.535Z,3.13
2019-02-09T23:49:51.665Z,3.13
2019-02-09T23:52:22.394Z,3.02
2019-02-09T23:54:53.215Z,2.95
2019-02-09T23:57:23.905Z,2.88
2019-02-09T23:59:54.468Z,2.79
